Jacksonville, FL (32099)

3:10 PM EST on December 03, 2016 (GMT -0500)
Normandy Heights 32205 | | Change Station

Elev 20 ft 30.30 °N, 81.76 °W | Updated 12 seconds ago

Mostly Cloudy
Mostly Cloudy
66.0 °F
Feels Like 66.0 °F
N
0.9
Wind Variable Wind from NE
Gusts 2.5 mph

Today
High -- | Low -- °F
--% Chance of Precip.
Yesterday
High -- | Low -- °F
Precip. -- in
Pressure 30.14 in
Visibility 10.0 miles
Clouds Mostly Cloudy 16000 ft
Mostly Cloudy 25000 ft
Dew Point 50 °F
Humidity 57%
Rainfall 0.00 in
Snow Depth Not available.
7:08 AM 5:26 PM
Waxing Crescent, 17% visible
METAR KNIP 031953Z 07009KT 10SM BKN160 BKN250 19/08 A3015 RMK AO2 SLP205 T01940083 $
Pressure 30.14 in
Visibility 10.0 miles
Clouds Mostly Cloudy 16000 ft
Mostly Cloudy 25000 ft
Dew Point 50 °F
Humidity 57%
Rainfall 0.00 in
Snow Depth Not available.
7:08 AM 5:26 PM
Waxing Crescent, 17% visible
METAR KNIP 031953Z 07009KT 10SM BKN160 BKN250 19/08 A3015 RMK AO2 SLP205 T01940083 $

10-Day Weather Forecast

Almanac

Astronomy

Dec. 03, 2016 Rise Set
Actual Time
Civil Twilight
Nautical Twilight
Astronomical Twilight
Moon
Length of Visible Light
Length of Day
Tomorrow will be .
, % of the Moon is Illuminated

Today's Extremes

State Highs State Lows

Community

WunderPhotos

Upload Photos

1,955,482 photos uploaded!

WunderBlog® & News

Nearby

Air Quality

  Air Quality AQ Index Pollutant
Not available.

Snow Depth

Station Depth Elevation

Earthquake Activity

City Distance Mag. Time & Date
Minimum magnitude displayed is 2.5.

Coastal Water Temperatures

Place Temperature

Stations

Nearby Weather Stations

Station Location Temp. Windchill Dew Point Humidity Wind Precip. Elev Updated Type
                   

Watches & Warnings

There are currently no watches in effect.